Time;durP1;ratioP1;P1;durP2;ratioP2;P2;SDS_P1;SDS_P2;PMS_P1;PMS_P2;Temp;Humidity;BMP_temperature;BMP_pressure;BME280_temperature;BME280_humidity;BME280_pressure;Samples;Min_cycle;Max_cycle;Signal;HPM_P1;HPM_P2
2023/10/22 00:00:14;;;;;;;1.73;0.82;;;16.40;99.90;;;;;;4975697;28;20172;-69
2023/10/22 00:02:40;;;;;;;1.30;0.63;;;16.40;99.90;;;;;;4972487;28;20185;-69
2023/10/22 00:05:06;;;;;;;3.20;1.10;;;16.40;99.90;;;;;;4975473;28;20214;-69
2023/10/22 00:07:37;;;;;;;2.08;0.70;;;16.40;99.90;;;;;;4975090;28;20172;-71
2023/10/22 00:10:04;;;;;;;2.38;0.80;;;16.40;99.90;;;;;;4959818;28;20183;-68
2023/10/22 00:12:29;;;;;;;2.78;0.80;;;16.30;99.90;;;;;;4967743;28;20243;-69
2023/10/22 00:14:55;;;;;;;4.68;1.02;;;16.30;99.90;;;;;;4985282;28;20214;-69
2023/10/22 00:17:21;;;;;;;2.47;0.68;;;16.30;99.90;;;;;;4975714;28;20187;-70
2023/10/22 00:19:49;;;;;;;1.75;0.85;;;16.30;99.90;;;;;;4978839;28;20200;-69
2023/10/22 00:22:17;;;;;;;2.25;0.80;;;16.30;99.90;;;;;;4956908;28;20176;-70
2023/10/22 00:24:43;;;;;;;2.88;0.75;;;16.30;99.90;;;;;;4969254;28;20180;-70
2023/10/22 00:27:09;;;;;;;2.35;1.17;;;16.30;99.90;;;;;;4978979;28;20196;-70
2023/10/22 00:29:35;;;;;;;2.38;0.80;;;16.20;99.90;;;;;;4979112;28;20186;-70
2023/10/22 00:32:00;;;;;;;2.33;0.73;;;16.20;99.90;;;;;;4983840;28;20513;-70
2023/10/22 00:34:30;;;;;;;2.50;1.15;;;16.20;99.90;;;;;;4975764;28;20172;-71
2023/10/22 00:36:56;;;;;;;3.03;0.88;;;16.20;99.90;;;;;;4975166;28;20168;-69
2023/10/22 00:39:22;;;;;;;2.15;0.90;;;16.10;99.90;;;;;;4978166;28;20229;-69
2023/10/22 00:41:50;;;;;;;2.25;0.90;;;16.10;99.90;;;;;;4977793;28;20179;-68
2023/10/22 00:44:15;;;;;;;4.85;1.10;;;16.10;99.90;;;;;;4970829;28;20183;-69
2023/10/22 00:46:47;;;;;;;2.00;0.90;;;16.10;99.90;;;;;;4976347;28;20274;-67
2023/10/22 00:49:15;;;;;;;1.67;0.80;;;16.00;99.90;;;;;;4978166;28;20236;-70
2023/10/22 00:51:42;;;;;;;2.38;0.80;;;16.00;99.90;;;;;;4994892;28;20451;-66
2023/10/22 00:54:14;;;;;;;1.38;0.70;;;16.00;99.90;;;;;;4968143;28;20204;-69
2023/10/22 00:56:42;;;;;;;2.80;1.00;;;16.00;99.90;;;;;;4976819;28;20191;-67
2023/10/22 00:59:13;;;;;;;2.45;1.00;;;16.00;99.90;;;;;;4975170;28;20188;-68
2023/10/22 01:01:39;;;;;;;1.92;0.90;;;15.90;99.90;;;;;;4978865;28;20176;-69
2023/10/22 01:04:08;;;;;;;1.88;0.70;;;15.90;99.90;;;;;;4978216;28;20226;-69
2023/10/22 01:06:36;;;;;;;1.13;0.60;;;15.90;99.90;;;;;;4971386;28;20208;-70
2023/10/22 01:09:02;;;;;;;1.90;0.80;;;15.90;99.90;;;;;;4988965;28;20187;-70
2023/10/22 01:11:30;;;;;;;1.85;0.93;;;15.80;99.90;;;;;;4964019;28;20180;-70
2023/10/22 01:13:58;;;;;;;2.00;0.90;;;15.80;99.90;;;;;;4973428;28;20215;-70
2023/10/22 01:16:24;;;;;;;1.70;0.60;;;15.80;99.90;;;;;;4978250;28;20191;-69
2023/10/22 01:18:50;;;;;;;1.83;0.77;;;15.80;99.90;;;;;;4990446;28;20181;-69
2023/10/22 01:21:17;;;;;;;1.55;0.70;;;15.80;99.90;;;;;;4959037;28;20456;-68
2023/10/22 01:23:43;;;;;;;2.47;0.80;;;15.70;99.90;;;;;;4973150;28;20175;-69
2023/10/22 01:26:09;;;;;;;1.88;0.80;;;15.80;99.90;;;;;;4967294;28;20201;-67
2023/10/22 01:28:35;;;;;;;1.65;0.80;;;15.70;99.90;;;;;;4977473;28;20172;-69
2023/10/22 01:31:04;;;;;;;2.92;0.80;;;15.70;99.90;;;;;;4985794;28;20207;-69
2023/10/22 01:33:30;;;;;;;3.97;0.93;;;15.70;99.90;;;;;;4978033;28;20172;-69
2023/10/22 01:35:56;;;;;;;1.02;0.52;;;15.70;99.90;;;;;;4973753;28;20191;-65
2023/10/22 01:38:24;;;;;;;2.03;0.63;;;15.70;99.90;;;;;;4977614;28;20194;-69
2023/10/22 01:40:50;;;;;;;1.55;0.80;;;15.70;99.90;;;;;;4958474;28;20211;-68
2023/10/22 01:43:18;;;;;;;1.45;0.60;;;15.70;99.90;;;;;;4971932;28;20180;-68
2023/10/22 01:45:45;;;;;;;1.65;0.60;;;15.60;99.90;;;;;;4974853;28;20196;-65
2023/10/22 01:48:10;;;;;;;2.05;0.68;;;15.60;99.90;;;;;;4962906;28;20215;-68
2023/10/22 01:50:36;;;;;;;3.08;0.80;;;15.60;99.90;;;;;;4973438;28;20168;-68
2023/10/22 01:53:07;;;;;;;1.58;0.60;;;15.60;99.90;;;;;;4993700;28;20183;-67
2023/10/22 01:55:33;;;;;;;1.48;0.73;;;15.60;99.90;;;;;;4973245;28;20243;-69
2023/10/22 01:58:00;;;;;;;1.48;0.60;;;15.60;99.90;;;;;;4968075;28;20180;-68
2023/10/22 02:00:30;;;;;;;2.40;0.65;;;15.60;99.90;;;;;;4973232;28;20180;-68
2023/10/22 02:02:55;;;;;;;0.93;0.60;;;15.60;99.90;;;;;;4969636;28;20187;-68
2023/10/22 02:05:21;;;;;;;4.50;1.25;;;15.60;99.90;;;;;;4958002;29;20196;-69
2023/10/22 02:07:47;;;;;;;2.80;0.85;;;15.60;99.90;;;;;;4957637;29;20260;-70
2023/10/22 02:10:12;;;;;;;1.58;0.70;;;15.60;99.90;;;;;;4957935;29;20190;-69
2023/10/22 02:12:38;;;;;;;1.83;0.70;;;15.60;99.90;;;;;;4967318;28;20173;-70
2023/10/22 02:15:06;;;;;;;1.63;0.60;;;15.60;99.90;;;;;;4977018;28;20199;-70
2023/10/22 02:17:32;;;;;;;1.67;0.60;;;15.60;99.90;;;;;;4971230;28;20176;-70
2023/10/22 02:19:59;;;;;;;1.23;0.70;;;15.60;99.90;;;;;;4967285;28;20168;-70
2023/10/22 02:22:27;;;;;;;1.92;0.68;;;15.60;99.90;;;;;;4973403;28;20359;-70
2023/10/22 02:24:53;;;;;;;1.88;0.63;;;15.60;99.90;;;;;;4976494;28;20336;-70
2023/10/22 02:27:19;;;;;;;2.72;0.77;;;15.60;99.90;;;;;;4976644;28;20219;-69
2023/10/22 02:29:44;;;;;;;1.52;0.70;;;15.60;99.90;;;;;;4975494;28;20196;-70
2023/10/22 02:32:12;;;;;;;4.00;0.93;;;15.60;99.90;;;;;;4957832;29;20184;-69
2023/10/22 02:34:38;;;;;;;1.95;0.70;;;15.60;99.90;;;;;;4970389;28;20176;-69
2023/10/22 02:37:03;;;;;;;1.27;0.60;;;15.50;99.90;;;;;;4976240;28;20266;-70
2023/10/22 02:39:34;;;;;;;1.88;0.70;;;15.50;99.90;;;;;;4987047;28;20188;-70
2023/10/22 02:42:02;;;;;;;1.65;0.80;;;15.50;99.90;;;;;;4973497;28;20200;-70
2023/10/22 02:44:28;;;;;;;0.90;0.43;;;15.50;99.90;;;;;;4975767;28;20212;-68
2023/10/22 02:46:56;;;;;;;2.22;0.65;;;15.50;99.90;;;;;;4973964;28;20335;-69
2023/10/22 02:49:24;;;;;;;2.53;0.80;;;15.60;99.90;;;;;;4973557;28;20204;-70
2023/10/22 02:51:50;;;;;;;2.17;0.73;;;15.50;99.90;;;;;;4973927;28;20183;-70
2023/10/22 02:54:15;;;;;;;2.75;0.80;;;15.50;99.90;;;;;;4965866;28;20181;-69
2023/10/22 02:56:42;;;;;;;1.30;0.70;;;15.50;99.90;;;;;;4993392;28;20313;-69
2023/10/22 02:59:08;;;;;;;1.27;0.80;;;15.50;99.90;;;;;;4978991;28;20183;-68
2023/10/22 03:01:35;;;;;;;1.70;0.52;;;15.50;99.90;;;;;;4966031;28;20177;-70
2023/10/22 03:04:03;;;;;;;1.58;0.60;;;15.50;99.90;;;;;;4957527;28;20212;-70
2023/10/22 03:06:29;;;;;;;1.10;0.70;;;15.40;99.90;;;;;;4975839;28;20192;-69
2023/10/22 03:08:57;;;;;;;1.20;0.50;;;15.50;99.90;;;;;;4979681;28;20168;-70
2023/10/22 03:11:22;;;;;;;1.63;0.50;;;15.40;99.90;;;;;;4964279;28;20172;-70
2023/10/22 03:13:51;;;;;;;2.88;0.50;;;15.40;99.90;;;;;;4981171;28;20187;-70
2023/10/22 03:16:21;;;;;;;1.35;0.60;;;15.40;99.90;;;;;;4972473;28;20192;-70
2023/10/22 03:18:47;;;;;;;1.20;0.60;;;15.40;99.90;;;;;;4964267;28;20191;-71
2023/10/22 03:21:16;;;;;;;1.00;0.55;;;15.40;99.90;;;;;;4976231;28;20194;-69
2023/10/22 03:23:42;;;;;;;0.80;0.38;;;15.40;99.90;;;;;;4973692;28;20248;-70
2023/10/22 03:26:14;;;;;;;1.13;0.55;;;15.40;99.90;;;;;;4956717;29;20232;-68
2023/10/22 03:28:40;;;;;;;1.25;0.50;;;15.40;99.90;;;;;;4973101;28;20251;-70
2023/10/22 03:31:11;;;;;;;1.27;0.50;;;15.40;99.90;;;;;;4972349;28;20300;-70
2023/10/22 03:33:39;;;;;;;2.10;0.68;;;15.40;99.90;;;;;;4964135;28;20172;-70
2023/10/22 03:36:09;;;;;;;0.75;0.40;;;15.40;99.90;;;;;;4974388;28;20195;-69
2023/10/22 03:38:35;;;;;;;1.38;0.68;;;15.30;99.90;;;;;;4974874;28;20234;-69
2023/10/22 03:41:05;;;;;;;0.82;0.40;;;15.30;99.90;;;;;;4970006;28;20189;-70
2023/10/22 03:43:31;;;;;;;0.80;0.47;;;15.40;99.90;;;;;;4962324;28;20188;-69
2023/10/22 03:46:00;;;;;;;0.50;0.40;;;15.30;99.90;;;;;;4967230;28;20192;-69
2023/10/22 03:48:29;;;;;;;0.65;0.40;;;15.30;99.90;;;;;;4975225;28;20176;-69
2023/10/22 03:50:55;;;;;;;1.27;0.35;;;15.20;99.90;;;;;;4975514;28;20203;-70
2023/10/22 03:53:26;;;;;;;0.47;0.30;;;15.30;99.90;;;;;;4975165;28;20240;-68
2023/10/22 03:55:53;;;;;;;1.33;0.50;;;15.20;99.90;;;;;;4968975;28;20189;-67
2023/10/22 03:58:19;;;;;;;1.05;0.60;;;15.20;99.90;;;;;;4976392;28;20199;-70
2023/10/22 04:00:45;;;;;;;1.65;0.70;;;15.10;99.90;;;;;;4979121;28;20342;-69
2023/10/22 04:03:14;;;;;;;1.40;0.70;;;15.10;99.90;;;;;;4969260;28;20207;-69
2023/10/22 04:05:41;;;;;;;1.27;0.55;;;15.10;99.90;;;;;;4967829;28;20248;-70
2023/10/22 04:08:07;;;;;;;0.85;0.32;;;15.10;99.90;;;;;;4975373;28;20211;-69
2023/10/22 04:10:34;;;;;;;0.88;0.40;;;15.10;99.90;;;;;;4972036;28;20183;-70
2023/10/22 04:13:04;;;;;;;0.55;0.40;;;14.90;99.90;;;;;;4975537;28;20263;-70
2023/10/22 04:15:39;;;;;;;0.88;0.30;;;15.00;99.90;;;;;;4975151;28;20274;-70
2023/10/22 04:18:07;;;;;;;0.60;0.40;;;15.00;99.90;;;;;;4978205;28;20191;-70
2023/10/22 04:20:33;;;;;;;0.63;0.32;;;14.90;99.90;;;;;;4977683;28;20179;-70
2023/10/22 04:23:01;;;;;;;0.80;0.40;;;14.90;99.90;;;;;;4978985;28;20264;-71
2023/10/22 04:25:28;;;;;;;0.43;0.38;;;14.90;99.90;;;;;;4982645;28;20238;-69
2023/10/22 04:27:56;;;;;;;1.17;0.40;;;14.90;99.90;;;;;;4978798;28;20187;-69
2023/10/22 04:30:21;;;;;;;0.30;0.30;;;14.90;99.90;;;;;;4979016;28;20499;-69
2023/10/22 04:32:47;;;;;;;1.65;0.55;;;14.80;99.90;;;;;;4977377;28;20270;-69
2023/10/22 04:35:15;;;;;;;0.50;0.40;;;14.80;99.90;;;;;;4979088;28;20419;-70
2023/10/22 04:37:40;;;;;;;1.45;0.40;;;14.80;99.90;;;;;;4978689;28;20196;-70
2023/10/22 04:40:07;;;;;;;1.75;0.40;;;14.80;99.90;;;;;;4977843;28;20179;-69
2023/10/22 04:42:32;;;;;;;0.38;0.28;;;14.80;99.90;;;;;;4967476;28;20271;-70
2023/10/22 04:45:00;;;;;;;0.30;0.20;;;14.80;99.90;;;;;;4988434;28;20276;-70
2023/10/22 04:47:28;;;;;;;0.70;0.40;;;14.80;99.90;;;;;;4979824;28;20276;-70
2023/10/22 04:49:54;;;;;;;0.68;0.38;;;14.80;99.90;;;;;;4973874;28;20188;-69
2023/10/22 04:52:30;;;;;;;3.25;0.50;;;14.70;99.90;;;;;;4972831;28;20211;-70
2023/10/22 04:54:59;;;;;;;1.00;0.50;;;14.80;99.90;;;;;;4978386;28;20180;-70
2023/10/22 04:57:26;;;;;;;0.93;0.40;;;14.70;99.90;;;;;;4973332;28;20184;-68
2023/10/22 04:59:52;;;;;;;0.80;0.30;;;14.70;99.90;;;;;;4977403;28;20271;-68
2023/10/22 05:02:18;;;;;;;0.70;0.40;;;14.70;99.90;;;;;;4969691;28;20220;-67
2023/10/22 05:04:47;;;;;;;0.40;0.40;;;14.70;99.90;;;;;;4989839;28;20207;-69
2023/10/22 05:07:18;;;;;;;1.48;0.40;;;14.70;99.90;;;;;;4975555;28;20211;-70
2023/10/22 05:09:44;;;;;;;0.45;0.30;;;14.70;99.90;;;;;;4962323;28;20211;-69
2023/10/22 05:12:15;;;;;;;0.50;0.30;;;14.60;99.90;;;;;;4978050;28;20196;-69
2023/10/22 05:14:43;;;;;;;0.57;0.30;;;14.60;99.90;;;;;;4978609;28;20168;-68
2023/10/22 05:17:09;;;;;;;0.82;0.40;;;14.60;99.90;;;;;;4974839;28;20255;-69
2023/10/22 05:19:35;;;;;;;0.63;0.40;;;14.60;99.90;;;;;;4959681;28;20232;-70
2023/10/22 05:22:01;;;;;;;1.02;0.40;;;14.60;99.90;;;;;;4976839;28;20176;-68
2023/10/22 05:24:27;;;;;;;0.43;0.38;;;14.60;99.90;;;;;;4978113;28;20183;-70
2023/10/22 05:26:52;;;;;;;0.50;0.30;;;14.60;99.90;;;;;;4974242;28;20220;-69
2023/10/22 05:29:20;;;;;;;1.27;0.40;;;14.50;99.90;;;;;;4969492;28;20182;-69
2023/10/22 05:31:46;;;;;;;0.55;0.38;;;14.60;99.90;;;;;;4993758;28;20180;-69
2023/10/22 05:34:14;;;;;;;0.85;0.28;;;14.60;99.90;;;;;;4977237;28;20302;-67
2023/10/22 05:36:41;;;;;;;0.30;0.20;;;14.60;99.90;;;;;;4974738;28;20180;-68
2023/10/22 05:39:09;;;;;;;1.63;0.45;;;14.60;99.90;;;;;;4968695;28;20211;-69
2023/10/22 05:41:37;;;;;;;0.60;0.40;;;14.60;99.90;;;;;;4975800;28;20209;-68
2023/10/22 05:44:03;;;;;;;0.20;0.20;;;14.60;99.90;;;;;;4974099;28;20215;-68
2023/10/22 05:46:34;;;;;;;0.35;0.25;;;14.60;99.90;;;;;;4975190;28;20199;-69
2023/10/22 05:49:03;;;;;;;0.52;0.20;;;14.60;99.90;;;;;;4977983;28;20195;-70
2023/10/22 05:51:28;;;;;;;0.20;0.20;;;14.60;99.90;;;;;;4990796;28;20213;-70
2023/10/22 05:53:54;;;;;;;0.30;0.20;;;14.50;99.90;;;;;;4966612;28;20201;-68
2023/10/22 05:56:23;;;;;;;0.30;0.30;;;14.70;99.90;;;;;;4972739;28;20180;-69
2023/10/22 05:58:49;;;;;;;0.93;0.30;;;14.60;99.90;;;;;;4976028;28;20184;-69
2023/10/22 06:01:15;;;;;;;0.20;0.20;;;14.70;99.90;;;;;;4961146;28;20208;-67
2023/10/22 06:03:41;;;;;;;1.33;0.20;;;14.70;99.90;;;;;;4958384;29;20177;-69
2023/10/22 06:06:10;;;;;;;0.60;0.20;;;14.80;99.90;;;;;;4960919;28;20196;-70
2023/10/22 06:08:38;;;;;;;0.40;0.17;;;14.70;99.90;;;;;;4959390;28;20200;-70
2023/10/22 06:11:06;;;;;;;0.45;0.25;;;14.80;99.90;;;;;;4974256;28;20183;-70
2023/10/22 06:13:32;;;;;;;1.83;0.30;;;14.80;99.90;;;;;;4977592;28;20204;-70
2023/10/22 06:16:00;;;;;;;0.17;0.10;;;14.80;99.90;;;;;;4974545;28;20220;-71
2023/10/22 06:18:25;;;;;;;0.20;0.20;;;14.80;99.90;;;;;;4972332;28;20206;-70
2023/10/22 06:20:51;;;;;;;0.25;0.20;;;14.80;99.90;;;;;;4983979;28;20229;-70
2023/10/22 06:23:17;;;;;;;0.43;0.20;;;14.80;99.90;;;;;;4981411;28;20187;-70
2023/10/22 06:25:44;;;;;;;0.52;0.30;;;14.90;99.90;;;;;;4965076;28;20200;-70
2023/10/22 06:28:10;;;;;;;0.70;0.10;;;14.90;99.90;;;;;;4974571;28;20183;-70
2023/10/22 06:30:35;;;;;;;0.70;0.40;;;14.90;99.90;;;;;;4996730;28;20183;-69
2023/10/22 06:33:03;;;;;;;0.45;0.35;;;14.90;99.90;;;;;;4972545;28;20207;-70
2023/10/22 06:35:30;;;;;;;1.17;0.20;;;14.90;99.90;;;;;;4985335;28;20182;-68
2023/10/22 06:37:56;;;;;;;0.38;0.20;;;14.90;99.90;;;;;;4974244;28;20195;-70
2023/10/22 06:40:25;;;;;;;0.28;0.20;;;15.00;99.90;;;;;;4958988;28;20212;-67
2023/10/22 06:42:53;;;;;;;0.40;0.30;;;15.00;99.90;;;;;;4976707;28;20206;-69
2023/10/22 06:45:21;;;;;;;0.25;0.25;;;15.00;99.90;;;;;;4970649;28;20195;-70
2023/10/22 06:47:47;;;;;;;0.93;0.40;;;15.10;99.90;;;;;;4967578;28;20244;-70
2023/10/22 06:50:14;;;;;;;0.20;0.10;;;15.00;99.90;;;;;;4957886;28;20232;-70
2023/10/22 06:52:42;;;;;;;0.20;0.15;;;15.00;99.90;;;;;;4962345;28;20172;-70
2023/10/22 06:55:08;;;;;;;0.20;0.20;;;15.10;99.90;;;;;;4976687;28;20180;-70
2023/10/22 06:57:34;;;;;;;0.50;0.40;;;15.10;99.90;;;;;;4980468;28;20195;-69
2023/10/22 07:00:02;;;;;;;0.50;0.30;;;15.10;99.90;;;;;;4973107;28;20177;-70
2023/10/22 07:02:33;;;;;;;0.30;0.30;;;15.10;99.90;;;;;;4967657;28;20211;-69
2023/10/22 07:05:00;;;;;;;0.60;0.30;;;15.20;99.90;;;;;;4977242;28;20172;-68
2023/10/22 07:07:26;;;;;;;0.30;0.20;;;15.20;99.90;;;;;;4974071;28;20215;-71
2023/10/22 07:09:52;;;;;;;0.20;0.17;;;15.20;99.90;;;;;;4976434;28;20223;-71
2023/10/22 07:12:24;;;;;;;0.22;0.20;;;15.20;99.90;;;;;;4970194;28;20176;-70
2023/10/22 07:14:53;;;;;;;0.10;0.10;;;15.30;99.90;;;;;;4960629;28;20183;-69
2023/10/22 07:17:18;;;;;;;0.50;0.40;;;15.30;99.90;;;;;;4971858;28;20210;-70
2023/10/22 07:19:46;;;;;;;0.30;0.20;;;15.30;99.90;;;;;;4965454;28;20179;-70
2023/10/22 07:22:14;;;;;;;0.30;0.30;;;15.30;99.90;;;;;;4968826;28;20191;-70
2023/10/22 07:24:42;;;;;;;1.50;0.70;;;15.30;99.90;;;;;;4989900;28;20200;-71
2023/10/22 07:27:08;;;;;;;0.40;0.35;;;15.30;99.90;;;;;;4975649;28;20369;-71
2023/10/22 07:29:33;;;;;;;0.55;0.40;;;15.40;99.90;;;;;;4975568;28;20164;-70
2023/10/22 07:31:59;;;;;;;0.45;0.20;;;15.40;99.90;;;;;;4975965;28;20175;-71
2023/10/22 07:34:24;;;;;;;0.20;0.20;;;15.40;99.90;;;;;;4975303;28;20176;-71
2023/10/22 07:36:50;;;;;;;0.40;0.20;;;15.50;99.90;;;;;;4975836;28;20268;-64
2023/10/22 07:39:15;;;;;;;0.32;0.20;;;15.50;99.90;;;;;;4973977;28;20188;-71
2023/10/22 07:41:41;;;;;;;0.13;0.13;;;15.50;99.90;;;;;;4969270;28;20264;-68
2023/10/22 07:44:07;;;;;;;0.28;0.20;;;15.60;99.90;;;;;;4975967;28;20308;-71
2023/10/22 07:46:33;;;;;;;0.10;0.10;;;15.60;99.90;;;;;;4976030;28;20200;-70
2023/10/22 07:49:02;;;;;;;0.20;0.20;;;15.60;99.90;;;;;;4976455;28;20182;-71
2023/10/22 07:51:29;;;;;;;0.38;0.30;;;15.60;99.90;;;;;;4976191;28;20220;-68
2023/10/22 07:53:57;;;;;;;1.13;0.45;;;15.60;99.90;;;;;;4975357;28;20213;-69
2023/10/22 07:56:22;;;;;;;0.60;0.40;;;15.60;99.90;;;;;;4965079;28;20187;-70
2023/10/22 07:58:50;;;;;;;0.47;0.20;;;15.70;99.90;;;;;;4976189;28;20187;-70
2023/10/22 08:01:16;;;;;;;0.38;0.30;;;15.80;99.90;;;;;;4960690;28;20184;-69
2023/10/22 08:03:44;;;;;;;0.30;0.20;;;15.80;99.90;;;;;;4968059;28;20211;-70
2023/10/22 08:06:10;;;;;;;0.20;0.20;;;15.90;99.90;;;;;;4976441;28;20195;-70
2023/10/22 08:08:38;;;;;;;0.30;0.22;;;15.90;99.90;;;;;;4969679;28;20254;-70
2023/10/22 08:11:04;;;;;;;0.63;0.20;;;15.90;99.90;;;;;;4971159;28;20172;-71
2023/10/22 08:13:32;;;;;;;0.30;0.20;;;15.90;99.90;;;;;;4975542;28;20176;-71
2023/10/22 08:16:05;;;;;;;0.95;0.80;;;15.90;99.90;;;;;;4975200;28;20200;-70
2023/10/22 08:18:31;;;;;;;0.80;0.50;;;15.90;99.90;;;;;;4957784;28;20244;-70
2023/10/22 08:21:04;;;;;;;0.40;0.40;;;15.90;99.90;;;;;;4956476;29;20244;-70
2023/10/22 08:23:33;;;;;;;0.65;0.30;;;15.90;99.90;;;;;;4956278;29;20180;-70
2023/10/22 08:26:01;;;;;;;0.65;0.22;;;15.90;99.90;;;;;;4969067;28;20207;-70
2023/10/22 08:28:26;;;;;;;0.30;0.30;;;15.90;99.90;;;;;;4956332;28;20208;-68
2023/10/22 08:30:52;;;;;;;0.68;0.35;;;15.90;99.90;;;;;;4982575;28;20173;-69
2023/10/22 08:33:18;;;;;;;0.40;0.30;;;15.90;99.90;;;;;;4975558;28;20271;-69
2023/10/22 08:35:43;;;;;;;0.20;0.20;;;15.90;99.90;;;;;;4975363;28;20207;-69
2023/10/22 08:38:09;;;;;;;0.17;0.17;;;15.90;99.90;;;;;;4975382;28;20275;-70
2023/10/22 08:40:41;;;;;;;0.20;0.20;;;15.90;99.90;;;;;;4975562;28;20184;-70
2023/10/22 08:43:17;;;;;;;0.30;0.30;;;15.90;99.90;;;;;;4975277;28;20232;-70
2023/10/22 08:45:48;;;;;;;0.25;0.25;;;15.90;99.90;;;;;;4978159;28;20207;-69
2023/10/22 08:48:15;;;;;;;0.32;0.32;;;16.00;99.90;;;;;;4979239;28;20179;-70
2023/10/22 08:50:48;;;;;;;0.80;0.47;;;16.00;99.90;;;;;;4978976;28;20172;-70
2023/10/22 08:53:15;;;;;;;0.90;0.50;;;16.00;99.90;;;;;;4978998;28;20206;-69
2023/10/22 08:55:49;;;;;;;1.15;0.77;;;16.00;99.90;;;;;;4978603;28;20180;-70
2023/10/22 08:58:18;;;;;;;0.90;0.80;;;16.10;99.90;;;;;;4978483;28;20211;-69
2023/10/22 09:00:45;;;;;;;2.13;1.10;;;16.10;99.90;;;;;;4978671;28;20176;-70
2023/10/22 09:03:14;;;;;;;1.25;0.90;;;16.10;99.90;;;;;;4977607;28;20227;-70
2023/10/22 09:05:43;;;;;;;1.00;0.90;;;16.10;99.90;;;;;;4962315;28;20211;-68
2023/10/22 09:08:11;;;;;;;0.80;0.77;;;16.10;99.90;;;;;;4963934;28;20199;-70
2023/10/22 09:10:37;;;;;;;10.38;7.28;;;16.10;99.90;;;;;;4959428;29;20196;-71
2023/10/22 09:13:13;;;;;;;6.93;5.40;;;16.10;99.90;;;;;;4959258;29;20181;-70
2023/10/22 09:15:52;;;;;;;3.03;2.72;;;16.20;99.90;;;;;;4958900;29;20261;-70
2023/10/22 09:18:20;;;;;;;2.40;2.00;;;16.20;99.90;;;;;;4961204;28;20184;-71
2023/10/22 09:20:49;;;;;;;1.40;1.30;;;16.20;99.90;;;;;;4977498;28;20180;-71
2023/10/22 09:23:15;;;;;;;1.20;1.10;;;16.20;99.90;;;;;;4977577;28;20212;-71
2023/10/22 09:25:41;;;;;;;0.82;0.80;;;16.20;99.90;;;;;;4978684;28;20196;-71
2023/10/22 09:28:16;;;;;;;1.00;0.90;;;16.10;99.90;;;;;;4978247;28;20184;-71
2023/10/22 09:30:45;;;;;;;1.10;0.93;;;16.10;99.90;;;;;;4978189;28;20200;-71
2023/10/22 09:33:15;;;;;;;1.00;0.90;;;16.00;99.90;;;;;;4978013;28;20802;-71
2023/10/22 09:35:56;;;;;;;1.13;0.70;;;16.00;99.90;;;;;;4963905;28;20263;-72
2023/10/22 09:38:49;;;;;;;0.80;0.70;;;16.00;99.90;;;;;;4958490;28;20227;-71
2023/10/22 09:41:23;;;;;;;0.93;0.80;;;16.00;99.90;;;;;;4969735;28;20256;-69
2023/10/22 09:43:57;;;;;;;0.95;0.70;;;16.00;99.90;;;;;;4974666;28;20206;-70
2023/10/22 09:46:32;;;;;;;1.85;1.30;;;16.00;99.90;;;;;;4958191;29;20236;-71
2023/10/22 09:49:03;;;;;;;3.00;2.22;;;16.00;99.90;;;;;;4972546;28;20187;-73
2023/10/22 09:51:35;;;;;;;2.42;1.77;;;16.00;99.90;;;;;;4957962;29;20193;-71
2023/10/22 09:54:09;;;;;;;1.42;1.17;;;16.10;99.90;;;;;;4969143;28;20227;-69
2023/10/22 09:56:42;;;;;;;1.30;1.17;;;16.20;99.90;;;;;;4976784;28;20168;-70
2023/10/22 09:59:08;;;;;;;1.40;0.90;;;16.30;99.90;;;;;;4977492;28;20239;-70
2023/10/22 10:01:39;;;;;;;1.65;0.90;;;16.50;99.90;;;;;;4977178;28;20175;-69
2023/10/22 10:04:06;;;;;;;1.27;0.95;;;16.70;99.90;;;;;;4974815;28;20176;-69
2023/10/22 10:06:35;;;;;;;0.77;0.65;;;16.90;99.90;;;;;;4957569;28;20204;-70
2023/10/22 10:09:04;;;;;;;0.85;0.60;;;17.00;99.90;;;;;;4970692;28;20165;-70
2023/10/22 10:11:31;;;;;;;0.70;0.60;;;17.10;99.90;;;;;;4973532;28;20200;-69
2023/10/22 10:14:10;;;;;;;0.82;0.75;;;17.10;99.90;;;;;;4977225;28;20196;-70
2023/10/22 10:16:42;;;;;;;0.40;0.40;;;17.20;99.90;;;;;;4977199;28;20482;-70
2023/10/22 10:19:10;;;;;;;0.85;0.57;;;17.20;99.90;;;;;;4984666;28;20203;-70
2023/10/22 10:21:38;;;;;;;1.52;0.90;;;17.20;99.90;;;;;;4976934;28;20176;-71
2023/10/22 10:24:20;;;;;;;0.80;0.47;;;17.30;99.90;;;;;;4967981;28;20216;-70
2023/10/22 10:26:50;;;;;;;1.23;0.57;;;17.30;99.90;;;;;;4973810;28;20201;-71
2023/10/22 10:29:19;;;;;;;0.80;0.50;;;17.30;99.90;;;;;;4964245;28;20199;-68
2023/10/22 10:31:51;;;;;;;1.33;0.60;;;17.30;99.90;;;;;;4976451;28;20192;-70
2023/10/22 10:34:33;;;;;;;1.05;0.60;;;17.30;99.90;;;;;;4968727;28;20255;-69
2023/10/22 10:37:13;;;;;;;1.48;1.13;;;17.40;99.90;;;;;;4963193;28;20192;-70
2023/10/22 10:39:44;;;;;;;1.50;0.80;;;17.40;99.90;;;;;;4973205;28;20212;-70
2023/10/22 10:42:13;;;;;;;1.35;1.08;;;17.40;99.90;;;;;;4966300;28;20172;-72
2023/10/22 10:44:57;;;;;;;1.02;0.88;;;17.40;99.90;;;;;;4976531;28;20183;-71
2023/10/22 10:47:22;;;;;;;2.13;1.05;;;17.40;99.90;;;;;;4976258;28;20206;-70
2023/10/22 10:50:05;;;;;;;1.25;0.98;;;17.40;99.90;;;;;;4976508;28;20172;-70
2023/10/22 10:52:55;;;;;;;1.02;0.73;;;17.40;99.90;;;;;;4969882;28;20207;-70
2023/10/22 10:55:21;;;;;;;1.92;1.38;;;17.30;99.90;;;;;;4957148;29;20254;-69
2023/10/22 10:57:48;;;;;;;1.20;1.10;;;17.30;99.90;;;;;;4956705;29;20188;-70
2023/10/22 11:00:22;;;;;;;1.38;1.02;;;17.30;99.90;;;;;;4974442;28;20212;-68
2023/10/22 11:02:52;;;;;;;1.50;1.10;;;17.20;99.90;;;;;;4971581;28;20192;-70
2023/10/22 11:05:32;;;;;;;1.42;1.02;;;17.20;99.90;;;;;;4974499;28;20177;-68
2023/10/22 11:07:59;;;;;;;1.90;1.55;;;17.20;99.90;;;;;;4978401;28;20208;-71
2023/10/22 11:10:28;;;;;;;1.60;1.20;;;17.20;99.90;;;;;;4976186;28;20176;-70
2023/10/22 11:13:02;;;;;;;1.20;1.02;;;17.10;99.90;;;;;;4975803;28;20215;-72
2023/10/22 11:15:35;;;;;;;1.35;1.00;;;17.10;99.90;;;;;;4975892;28;20184;-72
2023/10/22 11:18:04;;;;;;;1.08;0.70;;;17.10;99.90;;;;;;4972653;28;20185;-72
2023/10/22 11:20:30;;;;;;;1.25;0.73;;;17.10;99.90;;;;;;4966834;28;20180;-72
2023/10/22 11:22:57;;;;;;;1.10;0.80;;;17.10;99.90;;;;;;4972295;28;20240;-72
2023/10/22 11:25:23;;;;;;;1.15;0.80;;;17.10;99.90;;;;;;4969569;28;20215;-71
2023/10/22 11:27:49;;;;;;;1.10;0.80;;;17.10;99.90;;;;;;4976449;28;20179;-70
2023/10/22 11:30:36;;;;;;;0.88;0.80;;;17.00;99.90;;;;;;4975972;28;20172;-71
2023/10/22 11:33:11;;;;;;;0.90;0.75;;;17.00;99.90;;;;;;4982308;28;20205;-71
2023/10/22 11:35:40;;;;;;;1.20;0.80;;;17.00;99.90;;;;;;4981660;28;20254;-72
2023/10/22 11:38:06;;;;;;;1.77;0.95;;;17.00;99.90;;;;;;4972355;28;20212;-72
2023/10/22 11:40:35;;;;;;;1.08;0.90;;;17.00;99.90;;;;;;4964517;28;20234;-71
2023/10/22 11:43:05;;;;;;;1.30;1.10;;;17.00;99.90;;;;;;4976305;28;20223;-71
2023/10/22 11:45:36;;;;;;;1.33;0.90;;;17.00;99.90;;;;;;4973986;28;20203;-71
2023/10/22 11:48:27;;;;;;;1.83;1.17;;;17.00;99.90;;;;;;4969142;28;20176;-71
2023/10/22 11:51:01;;;;;;;1.60;1.10;;;17.00;99.90;;;;;;4992107;28;20211;-71
2023/10/22 11:53:29;;;;;;;1.10;0.90;;;17.00;99.90;;;;;;4976463;28;20322;-71
2023/10/22 11:55:54;;;;;;;0.90;0.80;;;16.90;99.90;;;;;;4964653;28;20267;-71
2023/10/22 11:58:22;;;;;;;0.88;0.80;;;16.90;99.90;;;;;;4972822;28;20267;-71
2023/10/22 12:00:48;;;;;;;1.65;1.00;;;16.80;99.90;;;;;;4977725;28;20200;-71
2023/10/22 12:03:17;;;;;;;0.70;0.60;;;16.80;99.90;;;;;;4983314;28;20266;-71
2023/10/22 12:05:43;;;;;;;1.17;0.70;;;16.70;99.90;;;;;;4975857;28;20211;-71
2023/10/22 12:08:11;;;;;;;1.05;0.40;;;16.70;99.90;;;;;;4975866;28;20179;-72
2023/10/22 12:10:39;;;;;;;0.70;0.60;;;16.70;99.90;;;;;;4992413;28;20191;-72
2023/10/22 12:13:06;;;;;;;1.30;0.90;;;16.60;99.90;;;;;;4994337;28;20179;-71
2023/10/22 12:15:35;;;;;;;1.70;0.82;;;16.60;99.90;;;;;;4960422;28;20215;-71
2023/10/22 12:18:00;;;;;;;1.73;0.77;;;16.50;99.90;;;;;;4985446;28;20171;-71
2023/10/22 12:20:26;;;;;;;0.60;0.60;;;16.50;99.90;;;;;;4964761;28;20187;-72
2023/10/22 12:22:52;;;;;;;1.30;0.90;;;16.50;99.90;;;;;;4979194;28;20203;-71
2023/10/22 12:25:17;;;;;;;1.00;0.90;;;16.40;99.90;;;;;;4972379;28;20179;-71
2023/10/22 12:27:43;;;;;;;1.00;0.70;;;16.40;99.90;;;;;;4979180;28;20208;-71
2023/10/22 12:30:09;;;;;;;0.77;0.70;;;16.30;99.90;;;;;;4982947;28;20247;-71
2023/10/22 12:32:37;;;;;;;3.13;1.00;;;16.30;99.90;;;;;;4973231;28;20208;-70
2023/10/22 12:35:05;;;;;;;1.23;0.90;;;16.20;99.90;;;;;;4961195;28;20295;-72
2023/10/22 12:37:31;;;;;;;1.55;1.08;;;16.10;99.90;;;;;;4979315;28;20230;-71
2023/10/22 12:39:59;;;;;;;1.58;1.00;;;16.10;99.90;;;;;;4995047;28;20172;-71
2023/10/22 12:42:24;;;;;;;1.27;0.90;;;16.10;99.90;;;;;;4979141;28;20212;-71
2023/10/22 12:44:50;;;;;;;1.58;1.27;;;16.00;99.90;;;;;;4979527;28;20184;-71
2023/10/22 12:47:18;;;;;;;2.38;1.45;;;16.00;99.90;;;;;;4982879;28;20216;-71
2023/10/22 12:49:46;;;;;;;2.92;2.20;;;16.00;99.90;;;;;;4960164;29;20196;-71
2023/10/22 12:52:13;;;;;;;1.20;1.10;;;16.00;99.90;;;;;;4974071;28;20180;-70